Destruction Bay, Canada
Current Conditions -  °F | °C
As of 3:00 AM on Thursday 23 Oct 2014 (Local Time) from CYDB Reporting Station
Light Snow Light Snow  
Wind Chill: 21°   Ceiling: 4100
Heat Index: 28°   Visibility: 9mi
Dew Point: 27°   Wind: 7mph
Humidity: 93%   Direction: 320°NW
Pressure: 29.52"   Gusts: NA
Location:  61.25°N, 138.8°W
Report Text: CYDB 231000Z AUTO 32006KT 9SM -SN OVC041 M02/M03 A2952 RMK SLP039
Loading
Personal Weather Stations






























Interactive Weather Map
Tropical Storm Tracking
New forecast layout! Learn more

10-Day Weather Forecast

Advertisements
Track Severe Weather on mobile